createdAt,value
2022-09-02T00:02:25.351Z,99.90
2022-09-02T00:04:52.585Z,99.90
2022-09-02T00:07:19.842Z,99.90
2022-09-02T00:09:47.192Z,99.90
2022-09-02T00:12:14.533Z,99.90
2022-09-02T00:14:41.799Z,99.90
2022-09-02T00:17:09.474Z,99.90
2022-09-02T00:19:38.221Z,99.90
2022-09-02T00:22:05.491Z,99.90
2022-09-02T00:24:33.102Z,99.90
2022-09-02T00:27:00.434Z,99.90
2022-09-02T00:29:29.118Z,99.90
2022-09-02T00:31:57.070Z,99.90
2022-09-02T00:34:24.946Z,99.90
2022-09-02T00:36:52.367Z,99.90
2022-09-02T00:39:19.947Z,99.90
2022-09-02T00:41:47.417Z,99.90
2022-09-02T00:44:17.475Z,99.90
2022-09-02T00:46:46.078Z,99.90
2022-09-02T00:49:25.545Z,99.90
2022-09-02T00:52:04.821Z,99.90
2022-09-02T00:54:35.165Z,99.90
2022-09-02T00:57:08.712Z,99.90
2022-09-02T00:59:57.082Z,99.90
2022-09-02T01:02:26.189Z,99.90
2022-09-02T01:04:56.833Z,99.90
2022-09-02T01:07:31.901Z,99.90
2022-09-02T01:10:01.935Z,99.90
2022-09-02T01:12:31.386Z,99.90
2022-09-02T01:14:58.928Z,99.90
2022-09-02T01:17:27.099Z,99.90
2022-09-02T01:20:01.681Z,99.90
2022-09-02T01:22:32.258Z,99.90
2022-09-02T01:25:05.459Z,99.90
2022-09-02T01:27:33.079Z,99.90
2022-09-02T01:30:01.331Z,99.90
2022-09-02T01:32:30.611Z,99.90
2022-09-02T01:34:59.367Z,99.90
2022-09-02T01:37:27.833Z,99.90
2022-09-02T01:39:57.288Z,99.90
2022-09-02T01:42:25.459Z,99.90
2022-09-02T01:44:53.387Z,99.90
2022-09-02T01:47:25.340Z,99.90
2022-09-02T01:49:53.672Z,99.90
2022-09-02T01:52:23.622Z,99.90
2022-09-02T01:54:51.694Z,99.90
2022-09-02T01:57:19.902Z,99.90
2022-09-02T01:59:47.205Z,99.90
2022-09-02T02:02:19.272Z,99.90
2022-09-02T02:04:50.822Z,99.90
2022-09-02T02:07:20.580Z,99.90
2022-09-02T02:09:48.627Z,99.90
2022-09-02T02:12:17.384Z,99.90
2022-09-02T02:14:44.791Z,99.90
2022-09-02T02:17:13.162Z,99.90
2022-09-02T02:19:40.669Z,99.90
2022-09-02T02:22:07.977Z,99.90
2022-09-02T02:24:35.395Z,99.90
2022-09-02T02:27:03.041Z,99.90
2022-09-02T02:29:30.590Z,99.90
2022-09-02T02:31:59.142Z,99.90
2022-09-02T02:34:26.807Z,99.90
2022-09-02T02:36:54.014Z,99.90
2022-09-02T02:39:22.186Z,99.90
2022-09-02T02:41:49.721Z,99.90
2022-09-02T02:44:17.486Z,99.90
2022-09-02T02:46:45.249Z,99.90
2022-09-02T02:49:13.060Z,99.90
2022-09-02T02:51:41.619Z,99.90
2022-09-02T02:54:10.466Z,99.90
2022-09-02T02:56:38.113Z,99.90
2022-09-02T02:59:05.864Z,99.90
2022-09-02T03:01:35.001Z,99.90
2022-09-02T03:04:03.902Z,99.90
2022-09-02T03:06:31.569Z,99.90
2022-09-02T03:09:00.721Z,99.90
2022-09-02T03:11:28.796Z,99.90
2022-09-02T03:13:57.866Z,99.90
2022-09-02T03:16:26.378Z,99.90
2022-09-02T03:18:54.973Z,99.90
2022-09-02T03:21:22.378Z,99.90
2022-09-02T03:23:50.245Z,99.90
2022-09-02T03:26:21.463Z,99.90
2022-09-02T03:28:49.560Z,99.90
2022-09-02T03:31:20.350Z,99.90
2022-09-02T03:33:48.257Z,99.90
2022-09-02T03:36:23.612Z,99.90
2022-09-02T03:38:52.365Z,99.90
2022-09-02T03:41:19.742Z,99.90
2022-09-02T03:43:48.132Z,99.90
2022-09-02T03:46:17.600Z,99.90
2022-09-02T03:48:45.901Z,99.90
2022-09-02T03:51:14.083Z,99.90
2022-09-02T03:53:42.354Z,99.90
2022-09-02T03:56:15.475Z,99.90
2022-09-02T03:58:45.947Z,99.90
2022-09-02T04:01:16.264Z,99.90
2022-09-02T04:03:44.631Z,99.90
2022-09-02T04:06:13.981Z,99.90
2022-09-02T04:08:43.965Z,99.90
2022-09-02T04:11:16.473Z,99.90
2022-09-02T04:13:47.486Z,99.90
2022-09-02T04:16:21.579Z,99.90
2022-09-02T04:18:49.018Z,99.90
2022-09-02T04:21:16.749Z,99.90
2022-09-02T04:23:44.631Z,99.90
2022-09-02T04:26:15.112Z,99.90
2022-09-02T04:28:43.165Z,99.90
2022-09-02T04:31:13.245Z,99.90
2022-09-02T04:33:42.416Z,99.90
2022-09-02T04:36:16.055Z,99.90
2022-09-02T04:38:44.951Z,99.90
2022-09-02T04:41:21.672Z,99.90
2022-09-02T04:43:51.540Z,99.90
2022-09-02T04:46:22.860Z,99.90
2022-09-02T04:49:03.691Z,99.90
2022-09-02T04:51:32.736Z,99.90
2022-09-02T04:54:02.245Z,99.90
2022-09-02T04:56:32.539Z,99.90
2022-09-02T04:59:02.532Z,99.90
2022-09-02T05:01:33.737Z,99.90
2022-09-02T05:04:09.706Z,99.90
2022-09-02T05:06:44.267Z,99.90
2022-09-02T05:09:16.919Z,99.90
2022-09-02T05:11:48.806Z,99.90
2022-09-02T05:14:17.924Z,99.90
2022-09-02T05:16:46.083Z,99.90
2022-09-02T05:19:16.678Z,99.90
2022-09-02T05:21:49.318Z,99.90
2022-09-02T05:24:26.820Z,99.90
2022-09-02T05:26:56.903Z,99.90
2022-09-02T05:29:26.605Z,99.90
2022-09-02T05:31:55.786Z,99.90
2022-09-02T05:34:24.890Z,99.90
2022-09-02T05:36:54.644Z,99.90
2022-09-02T05:39:22.442Z,99.90
2022-09-02T05:41:50.338Z,99.90
2022-09-02T05:44:18.231Z,99.90
2022-09-02T05:46:48.948Z,99.90
2022-09-02T05:49:18.048Z,99.90
2022-09-02T05:51:56.194Z,99.90
2022-09-02T05:54:32.373Z,99.90
2022-09-02T05:57:08.832Z,99.90
2022-09-02T05:59:42.490Z,99.90
2022-09-02T06:02:15.030Z,99.90
2022-09-02T06:04:46.335Z,99.90
2022-09-02T06:07:14.879Z,99.90
2022-09-02T06:09:45.475Z,99.90
2022-09-02T06:12:14.860Z,99.90
2022-09-02T06:14:43.029Z,99.90
2022-09-02T06:17:11.845Z,99.90
2022-09-02T06:19:45.978Z,99.90
2022-09-02T06:22:14.212Z,99.90
2022-09-02T06:24:43.023Z,99.90
2022-09-02T06:27:17.109Z,99.90
2022-09-02T06:29:47.838Z,99.90
2022-09-02T06:32:20.452Z,99.90
2022-09-02T06:34:49.592Z,99.90
2022-09-02T06:37:17.019Z,99.90
2022-09-02T06:39:46.715Z,99.90
2022-09-02T06:42:19.731Z,99.90
2022-09-02T06:45:04.327Z,99.90
2022-09-02T06:47:33.379Z,99.90
2022-09-02T06:50:01.012Z,99.90
2022-09-02T06:52:28.961Z,99.90
2022-09-02T06:54:56.681Z,99.90
2022-09-02T06:57:31.341Z,99.90
2022-09-02T07:00:08.897Z,99.90
2022-09-02T07:02:38.335Z,99.90
2022-09-02T07:05:15.456Z,99.90
2022-09-02T07:07:48.202Z,99.90
2022-09-02T07:10:16.527Z,99.90
2022-09-02T07:12:52.104Z,99.90
2022-09-02T07:15:19.942Z,99.90
2022-09-02T07:17:49.678Z,99.90
2022-09-02T07:20:27.948Z,99.90
2022-09-02T07:22:59.326Z,99.90
2022-09-02T07:25:30.818Z,99.90
2022-09-02T07:27:59.104Z,99.90
2022-09-02T07:30:28.567Z,99.90
2022-09-02T07:33:03.266Z,99.90
2022-09-02T07:35:31.543Z,99.90
2022-09-02T07:37:59.604Z,99.90
2022-09-02T07:40:27.390Z,99.90
2022-09-02T07:42:58.641Z,99.90
2022-09-02T07:45:26.083Z,99.90
2022-09-02T07:47:55.135Z,99.90
2022-09-02T07:50:27.120Z,99.90
2022-09-02T07:52:57.219Z,99.90
2022-09-02T07:55:26.001Z,99.90
2022-09-02T07:57:55.407Z,99.90
2022-09-02T08:00:27.713Z,99.90
2022-09-02T08:03:00.649Z,99.90
2022-09-02T08:05:34.212Z,99.90
2022-09-02T08:08:02.480Z,99.90
2022-09-02T08:10:31.036Z,98.20
2022-09-02T08:13:02.674Z,97.10
2022-09-02T08:15:30.676Z,95.20
2022-09-02T08:17:58.887Z,95.50
2022-09-02T08:20:26.844Z,95.00
2022-09-02T08:23:05.054Z,95.00
2022-09-02T08:25:39.368Z,93.00
2022-09-02T08:28:07.100Z,93.50
2022-09-02T08:30:34.538Z,93.20
2022-09-02T08:33:02.026Z,92.40
2022-09-02T08:35:29.336Z,91.30
2022-09-02T08:37:59.589Z,90.60
2022-09-02T08:40:39.643Z,89.00
2022-09-02T08:43:39.977Z,81.90
2022-09-02T08:46:12.258Z,82.90
2022-09-02T08:48:50.087Z,82.00
2022-09-02T08:51:24.324Z,76.50
2022-09-02T08:53:59.076Z,77.70
2022-09-02T08:56:28.245Z,78.70
2022-09-02T08:59:00.237Z,80.10
2022-09-02T09:01:36.247Z,79.30
2022-09-02T09:04:31.245Z,79.30
2022-09-02T09:07:07.506Z,80.50
2022-09-02T09:10:00.052Z,78.70
2022-09-02T09:12:42.784Z,76.90
2022-09-02T09:15:31.832Z,74.10
2022-09-02T09:18:03.178Z,74.10
2022-09-02T09:20:38.100Z,74.00
2022-09-02T09:23:34.665Z,74.90
2022-09-02T09:26:11.591Z,74.70
2022-09-02T09:28:48.237Z,72.20
2022-09-02T09:31:21.675Z,70.70
2022-09-02T09:34:15.661Z,71.60
2022-09-02T09:36:46.677Z,68.90
2022-09-02T09:39:24.594Z,69.00
2022-09-02T09:41:54.918Z,66.80
2022-09-02T09:44:49.283Z,66.90
2022-09-02T09:47:26.017Z,66.40
2022-09-02T09:50:10.295Z,66.80
2022-09-02T09:52:38.091Z,65.50
2022-09-02T09:55:24.436Z,65.80
2022-09-02T09:57:53.643Z,63.00
2022-09-02T10:00:33.235Z,61.70
2022-09-02T10:03:04.483Z,62.10
2022-09-02T10:05:35.705Z,62.60
2022-09-02T10:08:16.608Z,63.60
2022-09-02T10:11:05.743Z,61.40
2022-09-02T10:13:35.936Z,61.30
2022-09-02T10:16:45.840Z,61.90
2022-09-02T10:19:13.019Z,60.20
2022-09-02T10:22:10.248Z,59.80
2022-09-02T10:25:01.153Z,59.20
2022-09-02T10:28:15.200Z,59.70
2022-09-02T10:31:02.865Z,56.60
2022-09-02T10:33:48.192Z,58.40
2022-09-02T10:36:23.328Z,58.00
2022-09-02T10:38:52.842Z,59.20
2022-09-02T10:41:36.780Z,59.20
2022-09-02T10:44:04.570Z,57.80
2022-09-02T10:47:03.801Z,59.10
2022-09-02T10:49:58.476Z,57.70
2022-09-02T10:53:07.313Z,57.30
2022-09-02T10:55:59.445Z,55.30
2022-09-02T10:58:42.961Z,54.40
2022-09-02T11:01:24.672Z,51.90
2022-09-02T11:04:00.969Z,52.60
2022-09-02T11:06:40.412Z,52.20
2022-09-02T11:09:21.313Z,52.50
2022-09-02T11:11:59.627Z,52.70
2022-09-02T11:14:52.653Z,52.80
2022-09-02T11:17:44.015Z,52.80
2022-09-02T11:20:30.514Z,53.10
2022-09-02T11:23:02.253Z,53.80
2022-09-02T11:25:49.790Z,53.80
2022-09-02T11:28:30.577Z,54.40
2022-09-02T11:31:06.885Z,54.40
2022-09-02T11:33:52.059Z,54.90
2022-09-02T11:36:19.602Z,54.60
2022-09-02T11:38:49.659Z,55.00
2022-09-02T11:41:49.093Z,55.10
2022-09-02T11:44:26.933Z,55.70
2022-09-02T11:47:26.322Z,55.80
2022-09-02T11:50:09.804Z,55.80
2022-09-02T11:53:08.241Z,56.10
2022-09-02T11:55:40.515Z,54.70
2022-09-02T11:58:08.680Z,54.60
2022-09-02T12:00:55.412Z,54.80
2022-09-02T12:03:46.610Z,55.00
2022-09-02T12:06:21.701Z,54.50
2022-09-02T12:08:50.234Z,55.30
2022-09-02T12:11:39.972Z,55.40
2022-09-02T12:14:32.672Z,55.60
2022-09-02T12:17:07.269Z,55.40
2022-09-02T12:19:45.670Z,55.10
2022-09-02T12:22:17.246Z,54.50
2022-09-02T12:24:56.637Z,54.40
2022-09-02T12:27:30.090Z,54.70
2022-09-02T12:29:59.397Z,54.50
2022-09-02T12:32:53.083Z,54.30
2022-09-02T12:35:34.975Z,53.40
2022-09-02T12:38:10.195Z,54.10
2022-09-02T12:40:53.858Z,53.90
2022-09-02T12:43:48.479Z,54.80
2022-09-02T12:46:32.081Z,53.40
2022-09-02T12:49:09.725Z,53.40
2022-09-02T12:51:57.242Z,53.50
2022-09-02T12:54:38.643Z,52.20
2022-09-02T12:57:10.164Z,53.20
2022-09-02T12:59:41.413Z,53.40
2022-09-02T13:02:43.968Z,53.40
2022-09-02T13:05:28.786Z,53.80
2022-09-02T13:08:33.077Z,52.10
2022-09-02T13:11:37.291Z,52.70
2022-09-02T13:14:07.394Z,50.90
2022-09-02T13:16:39.380Z,49.20
2022-09-02T13:19:11.533Z,48.80
2022-09-02T13:21:48.255Z,46.10
2022-09-02T13:24:34.536Z,46.10
2022-09-02T13:27:17.618Z,46.50
2022-09-02T13:30:09.175Z,45.40
2022-09-02T13:32:38.084Z,45.90
2022-09-02T13:35:08.722Z,46.40
2022-09-02T13:37:45.617Z,47.60
2022-09-02T13:40:25.136Z,48.50
2022-09-02T13:43:03.565Z,50.20
2022-09-02T13:45:34.834Z,50.60
2022-09-02T13:48:11.279Z,50.50
2022-09-02T13:50:44.022Z,48.60
2022-09-02T13:53:45.504Z,47.40
2022-09-02T13:56:24.806Z,46.30
2022-09-02T13:58:53.931Z,45.70
2022-09-02T14:01:30.030Z,44.00
2022-09-02T14:03:59.027Z,43.50
2022-09-02T14:06:33.592Z,43.30
2022-09-02T14:09:03.126Z,42.10
2022-09-02T14:11:38.355Z,41.80
2022-09-02T14:14:05.659Z,41.20
2022-09-02T14:16:35.920Z,42.50
2022-09-02T14:19:16.613Z,43.00
2022-09-02T14:21:58.451Z,43.50
2022-09-02T14:24:29.186Z,42.20
2022-09-02T14:27:00.006Z,42.50
2022-09-02T14:29:31.260Z,43.20
2022-09-02T14:32:13.772Z,43.70
2022-09-02T14:34:43.031Z,43.50
2022-09-02T14:37:28.714Z,43.60
2022-09-02T14:40:12.696Z,44.20
2022-09-02T14:42:53.686Z,44.90
2022-09-02T14:45:33.606Z,45.10
2022-09-02T14:48:25.690Z,45.00
2022-09-02T14:51:02.809Z,45.20
2022-09-02T14:53:31.236Z,45.10
2022-09-02T14:55:59.004Z,45.70
2022-09-02T14:58:28.366Z,46.50
2022-09-02T15:00:59.543Z,47.10
2022-09-02T15:03:27.951Z,47.30
2022-09-02T15:05:55.191Z,47.80
2022-09-02T15:08:22.915Z,48.30
2022-09-02T15:10:51.207Z,48.20
2022-09-02T15:13:29.609Z,48.50
2022-09-02T15:15:58.894Z,48.80
2022-09-02T15:18:26.495Z,48.50
2022-09-02T15:20:54.433Z,47.90
2022-09-02T15:23:22.655Z,48.20
2022-09-02T15:25:49.996Z,47.60
2022-09-02T15:28:17.324Z,47.20
2022-09-02T15:30:44.886Z,47.20
2022-09-02T15:33:14.692Z,47.90
2022-09-02T15:35:45.003Z,47.40
2022-09-02T15:38:12.955Z,47.50
2022-09-02T15:40:40.195Z,47.80
2022-09-02T15:43:07.394Z,48.50
2022-09-02T15:45:35.259Z,48.90
2022-09-02T15:48:02.665Z,50.00
2022-09-02T15:50:34.013Z,51.60
2022-09-02T15:53:02.351Z,51.00
2022-09-02T15:55:33.225Z,51.20
2022-09-02T15:58:01.939Z,51.00
2022-09-02T16:00:32.088Z,50.60
2022-09-02T16:03:01.486Z,50.70
2022-09-02T16:05:32.462Z,51.30
2022-09-02T16:07:59.986Z,51.90
2022-09-02T16:10:27.252Z,52.10
2022-09-02T16:12:54.435Z,52.70
2022-09-02T16:15:22.291Z,53.20
2022-09-02T16:17:51.255Z,53.60
2022-09-02T16:20:21.191Z,54.20
2022-09-02T16:22:49.212Z,54.50
2022-09-02T16:25:16.530Z,54.90
2022-09-02T16:27:52.876Z,55.00
2022-09-02T16:30:20.822Z,55.30
2022-09-02T16:32:50.650Z,55.80
2022-09-02T16:35:17.969Z,55.50
2022-09-02T16:37:45.398Z,55.90
2022-09-02T16:40:21.134Z,56.30
2022-09-02T16:42:48.968Z,56.70
2022-09-02T16:45:16.327Z,56.60
2022-09-02T16:47:43.521Z,57.10
2022-09-02T16:50:12.688Z,57.30
2022-09-02T16:52:41.185Z,57.40
2022-09-02T16:55:08.841Z,58.00
2022-09-02T16:57:36.353Z,58.00
2022-09-02T17:00:04.749Z,58.30
2022-09-02T17:02:32.074Z,58.70
2022-09-02T17:04:59.517Z,59.00
2022-09-02T17:07:26.840Z,59.30
2022-09-02T17:09:54.035Z,59.50
2022-09-02T17:12:21.612Z,59.70
2022-09-02T17:14:48.948Z,60.20
2022-09-02T17:17:17.303Z,60.50
2022-09-02T17:19:44.831Z,60.70
2022-09-02T17:22:12.039Z,61.40
2022-09-02T17:24:42.005Z,61.10
2022-09-02T17:27:09.759Z,61.40
2022-09-02T17:29:55.255Z,61.70
2022-09-02T17:32:22.792Z,61.80
2022-09-02T17:34:51.141Z,62.00
2022-09-02T17:37:19.819Z,62.20
2022-09-02T17:39:50.245Z,62.30
2022-09-02T17:42:17.775Z,62.50
2022-09-02T17:44:45.020Z,62.70
2022-09-02T17:47:20.244Z,62.90
2022-09-02T17:49:48.521Z,63.10
2022-09-02T17:52:21.781Z,63.30
2022-09-02T17:54:51.002Z,63.60
2022-09-02T17:57:28.430Z,63.70
2022-09-02T18:00:18.040Z,64.00
2022-09-02T18:03:00.929Z,64.40
2022-09-02T18:05:42.955Z,64.60
2022-09-02T18:08:19.530Z,65.00
2022-09-02T18:10:57.200Z,65.00
2022-09-02T18:13:34.627Z,65.30
2022-09-02T18:16:04.925Z,65.40
2022-09-02T18:18:46.184Z,65.70
2022-09-02T18:21:24.169Z,65.90
2022-09-02T18:23:57.870Z,66.20
2022-09-02T18:26:37.934Z,66.50
2022-09-02T18:29:27.660Z,66.60
2022-09-02T18:31:54.804Z,67.30
2022-09-02T18:34:34.186Z,67.40
2022-09-02T18:37:16.992Z,68.00
2022-09-02T18:40:03.319Z,68.10
2022-09-02T18:42:41.219Z,68.40
2022-09-02T18:45:25.401Z,68.80
2022-09-02T18:48:02.241Z,69.20
2022-09-02T18:50:50.781Z,69.30
2022-09-02T18:53:23.006Z,69.40
2022-09-02T18:55:54.033Z,69.90
2022-09-02T18:58:42.572Z,69.90
2022-09-02T19:01:35.506Z,70.60
2022-09-02T19:04:02.983Z,71.00
2022-09-02T19:06:35.960Z,71.00
2022-09-02T19:09:11.575Z,71.30
2022-09-02T19:11:39.934Z,71.50
2022-09-02T19:14:26.493Z,71.50
2022-09-02T19:16:55.495Z,71.70
2022-09-02T19:19:22.742Z,72.00
2022-09-02T19:21:55.411Z,72.40
2022-09-02T19:24:31.613Z,73.10
2022-09-02T19:27:06.053Z,73.30
2022-09-02T19:29:38.326Z,73.70
2022-09-02T19:32:05.938Z,74.50
2022-09-02T19:34:37.448Z,74.20
2022-09-02T19:37:05.464Z,74.60
2022-09-02T19:39:35.793Z,74.70
2022-09-02T19:42:03.077Z,75.30
2022-09-02T19:44:30.830Z,75.90
2022-09-02T19:49:47.200Z,76.90
2022-09-02T19:52:14.447Z,77.30
2022-09-02T19:54:42.113Z,77.90
2022-09-02T19:57:09.845Z,78.40
2022-09-02T19:59:37.022Z,79.10
2022-09-02T20:02:04.660Z,79.70
2022-09-02T20:04:33.315Z,80.10
2022-09-02T20:07:02.177Z,80.70
2022-09-02T20:09:29.637Z,81.10
2022-09-02T20:11:57.391Z,81.80
2022-09-02T20:14:24.941Z,82.70
2022-09-02T20:17:02.435Z,83.60
2022-09-02T20:19:32.536Z,84.70
2022-09-02T20:21:59.816Z,85.00
2022-09-02T20:24:31.550Z,86.70
2022-09-02T20:27:10.241Z,87.20
2022-09-02T20:29:59.085Z,87.70
2022-09-02T20:32:43.018Z,88.20
2022-09-02T20:35:22.265Z,89.20
2022-09-02T20:38:07.877Z,89.80
2022-09-02T20:41:02.477Z,90.30
2022-09-02T20:43:38.706Z,90.90
2022-09-02T20:46:30.041Z,91.10
2022-09-02T20:49:10.588Z,91.70
2022-09-02T20:51:54.035Z,92.00
2022-09-02T20:54:27.717Z,92.60
2022-09-02T20:57:11.611Z,93.00
2022-09-02T21:00:02.344Z,93.70
2022-09-02T21:02:35.211Z,94.20
2022-09-02T21:05:15.408Z,94.50
2022-09-02T21:07:55.570Z,95.50
2022-09-02T21:10:30.677Z,95.50
2022-09-02T21:13:21.298Z,95.90
2022-09-02T21:15:55.995Z,96.60
2022-09-02T21:18:41.712Z,96.90
2022-09-02T21:21:45.481Z,97.50
2022-09-02T21:24:23.166Z,98.30
2022-09-02T21:27:32.700Z,98.50
2022-09-02T21:30:09.702Z,99.20
2022-09-02T21:33:03.433Z,99.40
2022-09-02T21:35:52.068Z,99.50
2022-09-02T21:38:44.221Z,99.90
2022-09-02T21:41:34.586Z,99.90
2022-09-02T21:44:16.912Z,99.90
2022-09-02T21:47:04.191Z,99.90
2022-09-02T21:49:37.777Z,99.90
2022-09-02T21:52:31.957Z,99.90
2022-09-02T21:55:30.225Z,99.90
2022-09-02T21:58:27.303Z,99.90
2022-09-02T22:01:09.812Z,99.90
2022-09-02T22:03:41.489Z,99.90
2022-09-02T22:06:36.663Z,99.90
2022-09-02T22:09:10.996Z,99.90
2022-09-02T22:11:45.710Z,99.90
2022-09-02T22:14:15.292Z,99.90
2022-09-02T22:17:10.287Z,99.90
2022-09-02T22:19:40.600Z,99.90
2022-09-02T22:22:13.607Z,99.90
2022-09-02T22:24:41.170Z,99.90
2022-09-02T22:27:17.759Z,99.90
2022-09-02T22:30:07.674Z,99.90
2022-09-02T22:32:46.705Z,99.90
2022-09-02T22:35:35.830Z,99.90
2022-09-02T22:38:03.287Z,99.90
2022-09-02T22:40:41.350Z,99.90
2022-09-02T22:43:13.854Z,99.90
2022-09-02T22:46:09.255Z,99.90
2022-09-02T22:49:08.601Z,99.90
2022-09-02T22:52:25.962Z,99.90
2022-09-02T22:54:53.733Z,99.90
2022-09-02T22:57:30.163Z,99.90
2022-09-02T23:00:12.096Z,99.90
2022-09-02T23:02:42.187Z,99.90
2022-09-02T23:05:53.194Z,99.90
2022-09-02T23:08:22.122Z,99.90
2022-09-02T23:10:58.691Z,99.90
2022-09-02T23:13:43.120Z,99.90
2022-09-02T23:16:39.794Z,99.90
2022-09-02T23:19:43.767Z,99.90
2022-09-02T23:22:17.538Z,99.90
2022-09-02T23:25:15.567Z,99.90
2022-09-02T23:27:53.034Z,99.90
2022-09-02T23:30:20.366Z,99.90
2022-09-02T23:33:17.833Z,99.90
2022-09-02T23:36:20.220Z,99.90
2022-09-02T23:39:19.148Z,99.90
2022-09-02T23:41:47.047Z,99.90
2022-09-02T23:44:14.632Z,99.90
2022-09-02T23:47:13.620Z,99.90
2022-09-02T23:50:08.805Z,99.90
2022-09-02T23:52:56.587Z,99.90
2022-09-02T23:55:49.352Z,99.90
2022-09-02T23:58:43.580Z,99.90
